Time;durP1;ratioP1;P1;durP2;ratioP2;P2;SDS_P1;SDS_P2;PMS_P1;PMS_P2;Temp;Humidity;BMP_temperature;BMP_pressure;BME280_temperature;BME280_humidity;BME280_pressure;Samples;Min_cycle;Max_cycle;Signal;HPM_P1;HPM_P2
2021/12/29 00:00:12;;;;;;;;;;;7.20;99.90;;;;;;5015640;28;19957;-39
2021/12/29 00:02:38;;;;;;;;;;;7.10;99.90;;;;;;5032576;28;19972;-38
2021/12/29 00:05:06;;;;;;;;;;;7.10;99.90;;;;;;5015459;28;20405;-39
2021/12/29 00:07:35;;;;;;;;;;;7.10;99.90;;;;;;5033266;28;19925;-38
2021/12/29 00:10:03;;;;;;;;;;;7.10;99.90;;;;;;5048035;28;20011;-39
2021/12/29 00:12:29;;;;;;;;;;;7.10;99.90;;;;;;5031548;28;19925;-41
2021/12/29 00:14:56;;;;;;;;;;;7.10;99.90;;;;;;5015574;28;20026;-38
2021/12/29 00:17:24;;;;;;;;;;;7.10;99.90;;;;;;5014158;28;19925;-39
2021/12/29 00:19:51;;;;;;;;;;;7.10;99.90;;;;;;5033167;28;19929;-39
2021/12/29 00:22:18;;;;;;;;;;;7.10;99.90;;;;;;5033205;28;20387;-38
2021/12/29 00:24:45;;;;;;;;;;;7.10;99.90;;;;;;5015625;28;20036;-38
2021/12/29 00:27:12;;;;;;;;;;;7.10;99.90;;;;;;5015196;28;19956;-39
2021/12/29 00:29:38;;;;;;;;;;;7.10;99.90;;;;;;5014790;28;19931;-39
2021/12/29 00:32:05;;;;;;;;;;;7.10;99.90;;;;;;5031819;28;20449;-39
2021/12/29 00:34:34;;;;;;;;;;;7.10;99.90;;;;;;5032524;28;19926;-39
2021/12/29 00:37:00;;;;;;;;;;;7.10;99.90;;;;;;5032789;28;19931;-41
2021/12/29 00:39:27;;;;;;;;;;;7.10;99.90;;;;;;5015725;28;19925;-38
2021/12/29 00:41:54;;;;;;;;;;;7.10;99.90;;;;;;5032554;28;19925;-39
2021/12/29 00:44:21;;;;;;;;;;;7.20;99.90;;;;;;5015071;28;19929;-39
2021/12/29 00:46:52;;;;;;;;;;;7.10;99.90;;;;;;5032652;28;19979;-38
2021/12/29 00:49:19;;;;;;;;;;;7.10;99.90;;;;;;5033002;28;19986;-38
2021/12/29 00:51:47;;;;;;;;;;;7.10;99.90;;;;;;5014843;28;19968;-39
2021/12/29 00:54:14;;;;;;;;;;;7.10;99.90;;;;;;5030955;28;20403;-38
2021/12/29 00:56:41;;;;;;;;;;;7.10;99.90;;;;;;5014636;28;19928;-40
2021/12/29 00:59:07;;;;;;;;;;;7.10;99.90;;;;;;5032599;28;19925;-39
2021/12/29 01:01:34;;;;;;;;;;;7.20;99.90;;;;;;5014599;28;19925;-38
2021/12/29 01:04:02;;;;;;;;;;;7.20;99.90;;;;;;5032307;28;19929;-39
2021/12/29 01:06:29;;;;;;;;;;;7.20;99.90;;;;;;5041397;28;19925;-39
2021/12/29 01:08:57;;;;;;;;;;;7.20;99.90;;;;;;5032334;28;20427;-39
2021/12/29 01:11:24;;;;;;;;;;;7.20;99.90;;;;;;5032108;28;20364;-38
2021/12/29 01:13:51;;;;;;;;;;;7.20;99.90;;;;;;5015317;28;19983;-39
2021/12/29 01:18:58;;;;;;;;;;;7.20;99.90;;;;;;5014185;28;20344;-38
2021/12/29 01:21:25;;;;;;;;;;;7.20;99.90;;;;;;5032090;28;20304;-38
2021/12/29 01:23:52;;;;;;;;;;;7.20;99.90;;;;;;5033916;28;19925;-38
2021/12/29 01:26:20;;;;;;;;;;;7.20;99.90;;;;;;5036094;28;19969;-39
2021/12/29 01:28:47;;;;;;;;;;;7.20;99.90;;;;;;5019025;28;20409;-39
2021/12/29 01:31:14;;;;;;;;;;;7.20;99.90;;;;;;5018349;28;19925;-41
2021/12/29 01:33:40;;;;;;;;;;;7.30;99.90;;;;;;5036310;28;19925;-40
2021/12/29 01:36:07;;;;;;;;;;;7.20;99.90;;;;;;5020534;28;19968;-38
2021/12/29 01:38:34;;;;;;;;;;;7.20;99.90;;;;;;5035415;28;21181;-38
2021/12/29 01:41:01;;;;;;;;;;;7.30;99.90;;;;;;5051450;28;20438;-39
2021/12/29 01:43:29;;;;;;;;;;;7.20;99.90;;;;;;5035709;28;20468;-38
2021/12/29 01:45:56;;;;;;;;;;;7.30;99.90;;;;;;5036229;28;20337;-40
2021/12/29 01:48:22;;;;;;;;;;;7.20;99.90;;;;;;5051710;28;19925;-39
2021/12/29 01:50:51;;;;;;;;;;;7.30;99.90;;;;;;5036035;28;19925;-38
2021/12/29 01:53:23;;;;;;;;;;;7.30;99.90;;;;;;5017730;28;20280;-39
2021/12/29 01:55:50;;;;;;;;;;;7.30;99.90;;;;;;5030808;28;19947;-39
2021/12/29 01:58:17;;;;;;;;;;;7.30;99.90;;;;;;5035468;28;19929;-39
2021/12/29 02:00:45;;;;;;;;;;;7.30;99.90;;;;;;5034920;28;19932;-38
2021/12/29 02:03:12;;;;;;;;;;;7.20;99.90;;;;;;5035826;28;19975;-38
2021/12/29 02:05:39;;;;;;;;;;;7.20;99.90;;;;;;5018254;28;20286;-38
2021/12/29 02:08:05;;;;;;;;;;;7.30;99.90;;;;;;5018467;28;19925;-41
2021/12/29 02:10:36;;;;;;;;;;;7.20;99.90;;;;;;5035201;28;19926;-39
2021/12/29 02:13:03;;;;;;;;;;;7.20;99.90;;;;;;5036024;28;20031;-39
2021/12/29 02:15:30;;;;;;;;;;;7.20;99.90;;;;;;5035086;28;19925;-39
2021/12/29 02:17:58;;;;;;;;;;;7.20;99.90;;;;;;5018091;28;19948;-39
2021/12/29 02:20:27;;;;;;;;;;;7.20;99.90;;;;;;5035283;28;19975;-39
2021/12/29 02:23:11;;;;;;;;;;;7.20;99.90;;;;;;5018038;28;19931;-40
2021/12/29 02:25:47;;;;;;;;;;;7.30;99.90;;;;;;5017587;28;19940;-39
2021/12/29 02:28:14;;;;;;;;;;;7.20;99.90;;;;;;5051306;28;19929;-38
2021/12/29 02:30:40;;;;;;;;;;;7.30;99.90;;;;;;5017391;28;19925;-38
2021/12/29 02:33:07;;;;;;;;;;;7.30;99.90;;;;;;5035321;28;19931;-40
2021/12/29 02:35:35;;;;;;;;;;;7.30;99.90;;;;;;5033564;28;19958;-39
2021/12/29 02:38:07;;;;;;;;;;;7.30;99.90;;;;;;5034982;28;20385;-39
2021/12/29 02:40:35;;;;;;;;;;;7.30;99.90;;;;;;5017617;28;19925;-39
2021/12/29 02:43:02;;;;;;;;;;;7.30;99.90;;;;;;5017819;28;20278;-39
2021/12/29 02:45:33;;;;;;;;;;;7.30;99.90;;;;;;5035358;28;20015;-39
2021/12/29 02:48:00;;;;;;;;;;;7.30;99.90;;;;;;5043065;28;19925;-39
2021/12/29 02:50:26;;;;;;;;;;;7.30;99.90;;;;;;5034976;28;19959;-39
2021/12/29 02:52:55;;;;;;;;;;;7.30;99.90;;;;;;5034767;28;20397;-40
2021/12/29 02:55:21;;;;;;;;;;;7.40;99.90;;;;;;5034312;28;19925;-39
2021/12/29 02:57:48;;;;;;;;;;;7.30;99.90;;;;;;5034657;28;20003;-38
2021/12/29 03:00:16;;;;;;;;;;;7.30;99.90;;;;;;5034180;28;19932;-39
2021/12/29 03:02:42;;;;;;;;;;;7.40;99.90;;;;;;5016915;28;19953;-40
2021/12/29 03:05:10;;;;;;;;;;;7.40;99.90;;;;;;5034115;28;19936;-38
2021/12/29 03:07:36;;;;;;;;;;;7.40;99.90;;;;;;5017467;28;19925;-42
2021/12/29 03:10:05;;;;;;;;;;;7.50;99.90;;;;;;5034232;28;19933;-39
2021/12/29 03:12:32;;;;;;;;;;;7.50;99.90;;;;;;5034331;28;19975;-40
2021/12/29 03:14:58;;;;;;;;;;;7.50;99.90;;;;;;5049942;28;19972;-39
2021/12/29 03:17:25;;;;;;;;;;;7.50;99.90;;;;;;5034630;28;20412;-39
2021/12/29 03:19:52;;;;;;;;;;;7.50;99.90;;;;;;5016304;28;19929;-39
2021/12/29 03:22:19;;;;;;;;;;;7.50;99.90;;;;;;5034188;28;20388;-38
2021/12/29 03:24:46;;;;;;;;;;;7.50;99.90;;;;;;5016549;28;20023;-39
2021/12/29 03:27:14;;;;;;;;;;;7.50;99.90;;;;;;5034296;28;19929;-38
2021/12/29 03:29:41;;;;;;;;;;;7.60;99.90;;;;;;5034210;28;19972;-38
2021/12/29 03:32:09;;;;;;;;;;;7.60;99.90;;;;;;5033797;28;19932;-39
2021/12/29 03:34:36;;;;;;;;;;;7.60;99.90;;;;;;5034240;28;19933;-40
2021/12/29 03:37:03;;;;;;;;;;;7.60;99.90;;;;;;5033522;28;20685;-40
2021/12/29 03:39:37;;;;;;;;;;;7.60;99.90;;;;;;5016689;28;19925;-39
2021/12/29 03:42:04;;;;;;;;;;;7.60;99.90;;;;;;5016595;28;19933;-39
2021/12/29 03:44:32;;;;;;;;;;;7.60;99.90;;;;;;5033606;28;19933;-43
2021/12/29 03:46:59;;;;;;;;;;;7.60;99.90;;;;;;5012877;28;20021;-40
2021/12/29 03:49:26;;;;;;;;;;;7.60;99.90;;;;;;5016110;28;19947;-38
2021/12/29 03:51:53;;;;;;;;;;;7.60;99.90;;;;;;5033462;28;20389;-39
2021/12/29 03:54:19;;;;;;;;;;;7.60;99.90;;;;;;5015927;28;19965;-39
2021/12/29 03:56:46;;;;;;;;;;;7.60;99.90;;;;;;5033818;28;19925;-39
2021/12/29 03:59:13;;;;;;;;;;;7.60;99.90;;;;;;5032924;28;19933;-39
2021/12/29 04:01:41;;;;;;;;;;;7.60;99.90;;;;;;5016443;28;19995;-39
2021/12/29 04:04:08;;;;;;;;;;;7.60;99.90;;;;;;5033482;28;19925;-39
2021/12/29 04:06:35;;;;;;;;;;;7.60;99.90;;;;;;5015998;28;19969;-38
2021/12/29 04:09:01;;;;;;;;;;;7.70;99.90;;;;;;5033511;28;19931;-39
2021/12/29 04:11:28;;;;;;;;;;;7.70;99.90;;;;;;5015274;28;19976;-38
2021/12/29 04:13:55;;;;;;;;;;;7.70;99.90;;;;;;5033005;28;19929;-41
2021/12/29 04:16:22;;;;;;;;;;;7.70;99.90;;;;;;5015941;28;19961;-38
2021/12/29 04:19:14;;;;;;;;;;;7.70;99.90;;;;;;5033149;28;19987;-38
2021/12/29 04:21:42;;;;;;;;;;;7.60;99.90;;;;;;5016325;28;20015;-38
2021/12/29 04:24:08;;;;;;;;;;;7.70;99.90;;;;;;5033085;28;19987;-39
2021/12/29 04:26:36;;;;;;;;;;;7.70;99.90;;;;;;5033023;28;19932;-40
2021/12/29 04:29:03;;;;;;;;;;;7.70;99.90;;;;;;5032853;28;19975;-38
2021/12/29 04:31:30;;;;;;;;;;;7.70;99.90;;;;;;5032528;28;19925;-39
2021/12/29 04:33:58;;;;;;;;;;;7.70;99.90;;;;;;5033255;28;19925;-39
2021/12/29 04:36:25;;;;;;;;;;;7.70;99.90;;;;;;5032945;28;19925;-39
2021/12/29 04:38:51;;;;;;;;;;;7.70;99.90;;;;;;5048372;28;20444;-40
2021/12/29 04:41:18;;;;;;;;;;;7.70;99.90;;;;;;5032868;28;20278;-38
2021/12/29 04:43:45;;;;;;;;;;;7.70;99.90;;;;;;5032999;28;19925;-39
2021/12/29 04:46:15;;;;;;;;;;;7.70;99.90;;;;;;5015276;28;20003;-39
2021/12/29 04:48:49;;;;;;;;;;;7.70;99.90;;;;;;5032394;28;20403;-39
2021/12/29 04:51:24;;;;;;;;;;;7.70;99.90;;;;;;5032734;28;20373;-38
2021/12/29 04:53:51;;;;;;;;;;;7.70;99.90;;;;;;5011567;28;20225;-39
2021/12/29 04:56:18;;;;;;;;;;;7.70;99.90;;;;;;5012615;28;19948;-39
2021/12/29 04:58:44;;;;;;;;;;;7.70;99.90;;;;;;5012134;28;19936;-39
2021/12/29 05:01:11;;;;;;;;;;;7.70;99.90;;;;;;5012367;28;19932;-39
2021/12/29 05:03:38;;;;;;;;;;;7.70;99.90;;;;;;5012175;28;19926;-40
2021/12/29 05:08:50;;;;;;;;;;;7.70;99.90;;;;;;5013064;28;19925;-39
2021/12/29 05:11:17;;;;;;;;;;;7.70;99.90;;;;;;5010923;28;20024;-38
2021/12/29 05:13:44;;;;;;;;;;;7.70;99.90;;;;;;5011396;28;19969;-40
2021/12/29 05:16:11;;;;;;;;;;;7.70;99.90;;;;;;5012271;28;19968;-41
2021/12/29 05:18:38;;;;;;;;;;;7.70;99.90;;;;;;5043984;28;19929;-39
2021/12/29 05:21:05;;;;;;;;;;;7.70;99.90;;;;;;5011069;28;19984;-39
2021/12/29 05:23:32;;;;;;;;;;;7.70;99.90;;;;;;5010483;28;19925;-40
2021/12/29 05:26:00;;;;;;;;;;;7.70;99.90;;;;;;5007233;28;19932;-39
2021/12/29 05:28:27;;;;;;;;;;;7.70;99.90;;;;;;5011481;28;19969;-39
2021/12/29 05:30:54;;;;;;;;;;;7.70;99.90;;;;;;5012837;28;20411;-40
2021/12/29 05:33:20;;;;;;;;;;;7.70;99.90;;;;;;5012683;28;19926;-40
2021/12/29 05:35:47;;;;;;;;;;;7.60;99.90;;;;;;5012841;28;19997;-39
2021/12/29 05:38:14;;;;;;;;;;;7.70;99.90;;;;;;5012220;28;19952;-40
2021/12/29 05:40:41;;;;;;;;;;;7.70;99.90;;;;;;5010989;28;20013;-39
2021/12/29 05:43:09;;;;;;;;;;;7.70;99.90;;;;;;5011913;28;19925;-39
2021/12/29 05:45:36;;;;;;;;;;;7.60;99.90;;;;;;5012629;28;19925;-38
2021/12/29 05:48:02;;;;;;;;;;;7.70;99.90;;;;;;5011313;28;20008;-39
2021/12/29 05:50:29;;;;;;;;;;;7.60;99.90;;;;;;5012391;28;20356;-39
2021/12/29 05:52:56;;;;;;;;;;;7.60;99.90;;;;;;5010461;28;19925;-40
2021/12/29 05:55:23;;;;;;;;;;;7.60;99.90;;;;;;5010793;28;20394;-40
2021/12/29 05:57:50;;;;;;;;;;;7.60;99.90;;;;;;5008775;28;19933;-38
2021/12/29 06:00:19;;;;;;;;;;;7.60;99.90;;;;;;5010324;28;19972;-39
2021/12/29 06:02:45;;;;;;;;;;;7.60;99.90;;;;;;5011132;28;19932;-39
2021/12/29 06:05:12;;;;;;;;;;;7.70;99.90;;;;;;5010380;28;20016;-39
2021/12/29 06:07:39;;;;;;;;;;;7.70;99.90;;;;;;5012359;28;19971;-39
2021/12/29 06:10:06;;;;;;;;;;;7.60;99.90;;;;;;5013776;28;19925;-39
2021/12/29 06:12:33;;;;;;;;;;;7.70;99.90;;;;;;5014528;28;19925;-39
2021/12/29 06:15:00;;;;;;;;;;;7.70;99.90;;;;;;5015023;28;20064;-40
2021/12/29 06:17:28;;;;;;;;;;;7.60;99.90;;;;;;5015378;28;19932;-39
2021/12/29 06:19:56;;;;;;;;;;;7.60;99.90;;;;;;5015121;28;19929;-38
2021/12/29 06:22:23;;;;;;;;;;;7.70;99.90;;;;;;5015872;28;20301;-38
2021/12/29 06:24:52;;;;;;;;;;;7.70;99.90;;;;;;5015566;28;20690;-39
2021/12/29 06:27:19;;;;;;;;;;;7.70;99.90;;;;;;5047871;28;19926;-40
2021/12/29 06:29:46;;;;;;;;;;;7.70;99.90;;;;;;5015897;28;19972;-38
2021/12/29 06:32:12;;;;;;;;;;;7.70;99.90;;;;;;5013841;28;19988;-38
2021/12/29 06:34:40;;;;;;;;;;;7.70;99.90;;;;;;5015326;28;19948;-40
2021/12/29 06:37:09;;;;;;;;;;;7.70;99.90;;;;;;5014656;28;19964;-39
2021/12/29 06:39:36;;;;;;;;;;;7.70;99.90;;;;;;5013600;28;19926;-39
2021/12/29 06:42:03;;;;;;;;;;;7.70;99.90;;;;;;5014888;28;20437;-39
2021/12/29 06:44:29;;;;;;;;;;;7.70;99.90;;;;;;5015711;28;19932;-38
2021/12/29 06:46:56;;;;;;;;;;;7.70;99.90;;;;;;5014608;28;20028;-39
2021/12/29 06:49:23;;;;;;;;;;;7.70;99.90;;;;;;5013753;28;20366;-39
2021/12/29 06:51:52;;;;;;;;;;;7.70;99.90;;;;;;5014789;28;19925;-38
2021/12/29 06:54:18;;;;;;;;;;;7.70;99.90;;;;;;5013585;28;19980;-39
2021/12/29 06:56:45;;;;;;;;;;;7.70;99.90;;;;;;5014477;28;19925;-39
2021/12/29 06:59:12;;;;;;;;;;;7.70;99.90;;;;;;5014861;28;19926;-41
2021/12/29 07:01:39;;;;;;;;;;;7.70;99.90;;;;;;5012774;28;20370;-39
2021/12/29 07:04:05;;;;;;;;;;;7.70;99.90;;;;;;5013329;28;19932;-40
2021/12/29 07:06:32;;;;;;;;;;;7.70;99.90;;;;;;5013582;28;19956;-39
2021/12/29 07:09:00;;;;;;;;;;;7.70;99.90;;;;;;5010568;28;19930;-40
2021/12/29 07:11:27;;;;;;;;;;;7.70;99.90;;;;;;5012030;28;19929;-39
2021/12/29 07:13:55;;;;;;;;;;;7.70;99.90;;;;;;5011420;28;19980;-40
2021/12/29 07:16:22;;;;;;;;;;;7.70;99.90;;;;;;5012886;28;19973;-39
2021/12/29 07:18:49;;;;;;;;;;;7.70;99.90;;;;;;5014197;28;19925;-40
2021/12/29 07:21:15;;;;;;;;;;;7.80;99.90;;;;;;5012571;28;20389;-39
2021/12/29 07:23:42;;;;;;;;;;;7.80;99.90;;;;;;5012885;28;19996;-39
2021/12/29 07:26:10;;;;;;;;;;;7.70;99.90;;;;;;5013154;28;20119;-39
2021/12/29 07:28:37;;;;;;;;;;;7.80;99.90;;;;;;5013593;28;19939;-40
2021/12/29 07:31:04;;;;;;;;;;;7.80;99.90;;;;;;5013991;28;19929;-39
2021/12/29 07:33:32;;;;;;;;;;;7.80;99.90;;;;;;5007876;28;19961;-38
2021/12/29 07:35:59;;;;;;;;;;;7.70;99.90;;;;;;5011147;28;20519;-40
2021/12/29 07:38:26;;;;;;;;;;;7.80;99.90;;;;;;5013414;28;19930;-40
2021/12/29 07:40:52;;;;;;;;;;;7.80;99.90;;;;;;5010106;28;19969;-40
2021/12/29 07:43:21;;;;;;;;;;;7.80;99.90;;;;;;5013656;28;20015;-39
2021/12/29 07:45:47;;;;;;;;;;;7.80;99.90;;;;;;5013049;28;19979;-39
2021/12/29 07:48:17;;;;;;;;;;;7.80;99.90;;;;;;5014031;28;19992;-39
2021/12/29 07:50:43;;;;;;;;;;;7.80;99.90;;;;;;5010889;28;19934;-38
2021/12/29 07:53:10;;;;;;;;;;;7.80;99.90;;;;;;5011333;28;19968;-40
2021/12/29 07:55:37;;;;;;;;;;;7.80;99.90;;;;;;5041115;28;19925;-40
2021/12/29 07:58:04;;;;;;;;;;;7.80;99.90;;;;;;5028510;28;19929;-40
2021/12/29 08:00:32;;;;;;;;;;;7.80;99.90;;;;;;5011758;28;20459;-39
2021/12/29 08:02:59;;;;;;;;;;;7.90;99.90;;;;;;5032852;28;20396;-39
2021/12/29 08:05:25;;;;;;;;;;;7.80;99.90;;;;;;5014814;28;19928;-42
2021/12/29 08:07:52;;;;;;;;;;;7.80;99.90;;;;;;5032499;28;20003;-39
2021/12/29 08:10:19;;;;;;;;;;;7.90;99.90;;;;;;5010696;28;19940;-40
2021/12/29 08:12:46;;;;;;;;;;;7.90;99.90;;;;;;5030172;28;19964;-41
2021/12/29 08:15:12;;;;;;;;;;;7.90;99.90;;;;;;5040797;28;19925;-39
2021/12/29 08:17:41;;;;;;;;;;;7.90;99.90;;;;;;5013251;28;20301;-39
2021/12/29 08:20:08;;;;;;;;;;;7.90;99.90;;;;;;5048851;28;19947;-39
2021/12/29 08:22:35;;;;;;;;;;;7.90;99.90;;;;;;5014677;28;19979;-41
2021/12/29 08:25:02;;;;;;;;;;;7.90;99.90;;;;;;5032562;28;20373;-40
2021/12/29 08:27:29;;;;;;;;;;;7.90;99.90;;;;;;5012188;28;20820;-39
2021/12/29 08:29:55;;;;;;;;;;;7.90;99.90;;;;;;5032195;28;19968;-39
2021/12/29 08:32:22;;;;;;;;;;;7.90;99.90;;;;;;5014181;28;20024;-39
2021/12/29 08:34:50;;;;;;;;;;;7.90;99.90;;;;;;5014615;28;19925;-39
2021/12/29 08:37:17;;;;;;;;;;;7.90;99.90;;;;;;5031546;28;20030;-38
2021/12/29 08:39:44;;;;;;;;;;;7.90;99.90;;;;;;5017613;28;19932;-39
2021/12/29 08:42:11;;;;;;;;;;;7.90;99.90;;;;;;5015255;28;19929;-39
2021/12/29 08:44:38;;;;;;;;;;;8.00;99.90;;;;;;5015535;28;19986;-39
2021/12/29 08:47:05;;;;;;;;;;;7.90;99.90;;;;;;5015539;28;19928;-40
2021/12/29 08:49:32;;;;;;;;;;;8.00;99.90;;;;;;5031612;28;19972;-39
2021/12/29 08:52:00;;;;;;;;;;;7.90;99.90;;;;;;5047869;28;19925;-39
2021/12/29 08:54:27;;;;;;;;;;;8.00;99.90;;;;;;5030739;28;19933;-41
2021/12/29 08:56:54;;;;;;;;;;;8.00;99.90;;;;;;5047105;28;19947;-39
2021/12/29 08:59:21;;;;;;;;;;;8.00;99.90;;;;;;5014871;28;19925;-40
2021/12/29 09:01:48;;;;;;;;;;;8.00;99.90;;;;;;5013741;28;19983;-42
2021/12/29 09:04:15;;;;;;;;;;;8.00;99.90;;;;;;5026989;28;19936;-41
2021/12/29 09:06:42;;;;;;;;;;;8.10;99.90;;;;;;5013747;28;19935;-41
2021/12/29 09:09:10;;;;;;;;;;;8.10;99.90;;;;;;5020639;28;20321;-40
2021/12/29 09:11:37;;;;;;;;;;;8.10;99.90;;;;;;5025218;28;19975;-39
2021/12/29 09:14:04;;;;;;;;;;;8.10;99.90;;;;;;5041828;28;19971;-39
2021/12/29 09:16:31;;;;;;;;;;;8.10;99.90;;;;;;5006795;28;19987;-40
2021/12/29 09:18:57;;;;;;;;;;;8.20;99.90;;;;;;5007873;28;20007;-39
2021/12/29 09:21:26;;;;;;;;;;;8.10;99.90;;;;;;5012968;28;19925;-40
2021/12/29 09:23:53;;;;;;;;;;;8.20;99.90;;;;;;5013131;28;19925;-41
2021/12/29 09:26:21;;;;;;;;;;;8.20;99.90;;;;;;5014369;28;19925;-39
2021/12/29 09:28:48;;;;;;;;;;;8.20;99.90;;;;;;5009199;28;19965;-39
2021/12/29 09:31:15;;;;;;;;;;;8.20;99.90;;;;;;5030208;28;20300;-40
2021/12/29 09:33:42;;;;;;;;;;;8.20;99.90;;;;;;5029725;28;19925;-39
2021/12/29 09:36:08;;;;;;;;;;;8.30;99.90;;;;;;5014844;28;19933;-39
2021/12/29 09:38:36;;;;;;;;;;;8.30;99.90;;;;;;5029617;28;19940;-39
2021/12/29 09:41:03;;;;;;;;;;;8.30;99.90;;;;;;5014298;28;19925;-39
2021/12/29 09:43:31;;;;;;;;;;;8.30;99.90;;;;;;5039756;28;19925;-40
2021/12/29 09:45:58;;;;;;;;;;;8.30;99.90;;;;;;5017377;28;19975;-41
2021/12/29 09:48:25;;;;;;;;;;;8.30;99.90;;;;;;5033746;28;19956;-38
2021/12/29 09:50:52;;;;;;;;;;;8.30;99.90;;;;;;5016798;28;20285;-39
2021/12/29 09:53:18;;;;;;;;;;;8.40;99.90;;;;;;5027536;28;19940;-41
2021/12/29 09:55:46;;;;;;;;;;;8.40;99.90;;;;;;5023073;28;20442;-41
2021/12/29 09:58:18;;;;;;;;;;;8.40;99.90;;;;;;5022133;28;19925;-41
2021/12/29 10:00:47;;;;;;;;;;;8.40;99.90;;;;;;5013877;28;19929;-42
2021/12/29 10:03:15;;;;;;;;;;;8.50;99.90;;;;;;5036375;28;19926;-41
2021/12/29 10:05:42;;;;;;;;;;;8.50;99.90;;;;;;5017775;28;20008;-41
2021/12/29 10:08:09;;;;;;;;;;;8.50;99.90;;;;;;5047838;28;19980;-39
2021/12/29 10:10:37;;;;;;;;;;;8.60;99.90;;;;;;5015816;28;20381;-43
2021/12/29 10:13:03;;;;;;;;;;;8.60;99.90;;;;;;5015970;28;19932;-39
2021/12/29 10:15:31;;;;;;;;;;;8.60;99.90;;;;;;5032554;28;19925;-39
2021/12/29 10:18:03;;;;;;;;;;;8.60;99.90;;;;;;5022178;28;20447;-39
2021/12/29 10:20:30;;;;;;;;;;;8.70;99.90;;;;;;5021289;28;19994;-39
2021/12/29 10:22:57;;;;;;;;;;;8.70;99.90;;;;;;5048804;28;20027;-39
2021/12/29 10:25:24;;;;;;;;;;;8.70;99.90;;;;;;5015076;28;19929;-39
2021/12/29 10:27:51;;;;;;;;;;;8.80;99.90;;;;;;5060852;28;19929;-39
2021/12/29 10:30:19;;;;;;;;;;;8.70;99.90;;;;;;5014325;28;19925;-39
2021/12/29 10:32:46;;;;;;;;;;;8.80;99.90;;;;;;5039746;28;19933;-39
2021/12/29 10:35:21;;;;;;;;;;;8.80;99.90;;;;;;5021248;28;19983;-40
2021/12/29 10:37:48;;;;;;;;;;;8.80;99.90;;;;;;5039357;28;20381;-39
2021/12/29 10:40:24;;;;;;;;;;;8.70;99.90;;;;;;5052684;28;19925;-39
2021/12/29 10:42:53;;;;;;;;;;;8.70;99.90;;;;;;5047507;28;20362;-41
2021/12/29 10:45:27;;;;;;;;;;;8.80;99.90;;;;;;5017078;28;19928;-40
2021/12/29 10:47:54;;;;;;;;;;;8.70;99.90;;;;;;5046095;28;19925;-40
2021/12/29 10:50:22;;;;;;;;;;;8.70;99.90;;;;;;5045827;28;19925;-39
2021/12/29 10:52:50;;;;;;;;;;;8.70;99.90;;;;;;5052625;28;19932;-39
2021/12/29 10:55:17;;;;;;;;;;;8.70;99.90;;;;;;5032626;28;19928;-38
2021/12/29 10:57:46;;;;;;;;;;;8.70;99.90;;;;;;5025945;28;19935;-39
2021/12/29 11:00:15;;;;;;;;;;;8.80;99.90;;;;;;5023988;28;19933;-39
2021/12/29 11:02:43;;;;;;;;;;;8.70;99.90;;;;;;5034493;28;19925;-39
2021/12/29 11:05:10;;;;;;;;;;;8.70;99.90;;;;;;5030009;28;19925;-40
2021/12/29 11:07:39;;;;;;;;;;;8.80;99.90;;;;;;5032572;28;19925;-39
2021/12/29 11:10:09;;;;;;;;;;;8.80;99.90;;;;;;5016354;28;20393;-41
2021/12/29 11:12:43;;;;;;;;;;;8.80;99.90;;;;;;5015809;28;20323;-40
2021/12/29 11:15:14;;;;;;;;;;;8.80;99.90;;;;;;5015650;28;20288;-40
2021/12/29 11:17:41;;;;;;;;;;;8.90;99.90;;;;;;5033665;28;20300;-40
2021/12/29 11:20:08;;;;;;;;;;;8.90;99.90;;;;;;5033006;28;19925;-39
2021/12/29 11:22:38;;;;;;;;;;;8.90;99.90;;;;;;5047639;28;19929;-39
2021/12/29 11:25:07;;;;;;;;;;;9.00;99.90;;;;;;5016128;28;19991;-39
2021/12/29 11:27:35;;;;;;;;;;;9.00;99.90;;;;;;5031943;28;20024;-40
2021/12/29 11:30:03;;;;;;;;;;;9.10;99.90;;;;;;5008713;28;19965;-43
2021/12/29 11:32:30;;;;;;;;;;;9.10;99.90;;;;;;5032933;28;19925;-39
2021/12/29 11:34:58;;;;;;;;;;;9.10;99.90;;;;;;5014699;28;19932;-42
2021/12/29 11:37:25;;;;;;;;;;;9.20;99.90;;;;;;5047816;28;19932;-41
2021/12/29 11:39:51;;;;;;;;;;;9.20;99.90;;;;;;5015599;28;19925;-42
2021/12/29 11:42:19;;;;;;;;;;;9.20;99.90;;;;;;5034375;28;19925;-39
2021/12/29 11:44:46;;;;;;;;;;;9.20;99.90;;;;;;5015959;28;19936;-39
2021/12/29 11:47:13;;;;;;;;;;;9.10;99.90;;;;;;5047255;28;19956;-39
2021/12/29 11:49:40;;;;;;;;;;;9.20;99.90;;;;;;5016364;28;20020;-40
2021/12/29 11:52:08;;;;;;;;;;;9.10;99.90;;;;;;5031206;28;19929;-40
2021/12/29 11:54:37;;;;;;;;;;;9.10;99.90;;;;;;5031982;28;19929;-40
2021/12/29 11:57:11;;;;;;;;;;;9.10;99.90;;;;;;5015696;28;20016;-41
2021/12/29 11:59:39;;;;;;;;;;;9.10;99.90;;;;;;5030236;28;19926;-39
2021/12/29 12:02:06;;;;;;;;;;;9.00;99.90;;;;;;5033541;28;19929;-40
2021/12/29 12:04:32;;;;;;;;;;;9.00;99.90;;;;;;5023856;28;20027;-39
2021/12/29 12:07:00;;;;;;;;;;;9.00;99.90;;;;;;5033186;28;19931;-40
2021/12/29 12:09:27;;;;;;;;;;;9.00;99.90;;;;;;5033327;28;20292;-39
2021/12/29 12:11:54;;;;;;;;;;;9.00;99.90;;;;;;5033631;28;20301;-40
2021/12/29 12:14:22;;;;;;;;;;;9.00;99.90;;;;;;5047604;28;19995;-41
2021/12/29 12:16:51;;;;;;;;;;;9.00;99.90;;;;;;5033034;28;20308;-40
2021/12/29 12:19:18;;;;;;;;;;;9.00;99.90;;;;;;5014534;28;19925;-40
2021/12/29 12:21:45;;;;;;;;;;;9.00;99.90;;;;;;5030652;28;20685;-40
2021/12/29 12:24:13;;;;;;;;;;;9.00;99.90;;;;;;5033464;28;19940;-39
2021/12/29 12:26:53;;;;;;;;;;;8.90;99.90;;;;;;5032786;28;19933;-40
2021/12/29 12:29:21;;;;;;;;;;;8.90;99.90;;;;;;5015772;28;19929;-40
2021/12/29 12:32:09;;;;;;;;;;;8.90;99.90;;;;;;5032755;28;19947;-40
2021/12/29 12:34:36;;;;;;;;;;;8.90;99.90;;;;;;5032739;28;19925;-40
2021/12/29 12:37:13;;;;;;;;;;;8.90;99.90;;;;;;5022604;28;19948;-39
2021/12/29 12:39:40;;;;;;;;;;;8.90;99.90;;;;;;5033049;28;19972;-41
2021/12/29 12:42:07;;;;;;;;;;;8.90;99.90;;;;;;5014712;28;20020;-39
2021/12/29 12:44:35;;;;;;;;;;;8.90;99.90;;;;;;5032633;28;19933;-39
2021/12/29 12:47:11;;;;;;;;;;;8.80;99.90;;;;;;5014980;28;19987;-41
2021/12/29 12:49:42;;;;;;;;;;;8.80;99.90;;;;;;5032944;28;19932;-40
2021/12/29 12:52:09;;;;;;;;;;;8.80;99.90;;;;;;5032678;28;19976;-40
2021/12/29 12:54:37;;;;;;;;;;;8.80;99.90;;;;;;5014973;28;20269;-40
2021/12/29 12:57:04;;;;;;;;;;;8.80;99.90;;;;;;5015105;28;20103;-40
2021/12/29 12:59:35;;;;;;;;;;;8.80;99.90;;;;;;5014983;28;20388;-40
2021/12/29 13:02:10;;;;;;;;;;;8.80;99.90;;;;;;5048271;28;19929;-41
2021/12/29 13:04:42;;;;;;;;;;;8.80;99.90;;;;;;5011240;28;19929;-40
2021/12/29 13:07:09;;;;;;;;;;;8.80;99.90;;;;;;5032735;28;19991;-40
2021/12/29 13:09:45;;;;;;;;;;;8.80;99.90;;;;;;5030339;28;19955;-39
2021/12/29 13:12:12;;;;;;;;;;;8.80;99.90;;;;;;5015017;28;19932;-40
2021/12/29 13:14:39;;;;;;;;;;;8.80;99.90;;;;;;5031885;28;19932;-40
2021/12/29 13:17:05;;;;;;;;;;;8.80;99.90;;;;;;5032620;28;19926;-40
2021/12/29 13:19:32;;;;;;;;;;;8.70;99.90;;;;;;5013722;28;19925;-40
2021/12/29 13:22:02;;;;;;;;;;;8.80;99.90;;;;;;5032335;28;19925;-41
2021/12/29 13:24:29;;;;;;;;;;;8.70;99.90;;;;;;5013338;28;19925;-41
2021/12/29 13:26:55;;;;;;;;;;;8.70;99.90;;;;;;5031981;28;19983;-40
2021/12/29 13:29:23;;;;;;;;;;;8.70;99.90;;;;;;5032495;28;20020;-40
2021/12/29 13:31:51;;;;;;;;;;;8.70;99.90;;;;;;5014608;28;19948;-40
2021/12/29 13:34:18;;;;;;;;;;;8.70;99.90;;;;;;5032345;28;19968;-41
2021/12/29 13:36:46;;;;;;;;;;;8.70;99.90;;;;;;5014977;28;20344;-40
2021/12/29 13:39:14;;;;;;;;;;;8.70;99.90;;;;;;5032412;28;19933;-39
2021/12/29 13:41:41;;;;;;;;;;;8.70;99.90;;;;;;5014601;28;19925;-40
2021/12/29 13:44:08;;;;;;;;;;;8.70;99.90;;;;;;5031994;28;19933;-39
2021/12/29 13:46:35;;;;;;;;;;;8.70;99.90;;;;;;5014183;28;20303;-39
2021/12/29 13:49:03;;;;;;;;;;;8.60;99.90;;;;;;5014759;28;20435;-40
2021/12/29 13:51:31;;;;;;;;;;;8.60;99.90;;;;;;5014258;28;19983;-40
2021/12/29 13:53:58;;;;;;;;;;;8.60;99.90;;;;;;5030313;28;20277;-40
2021/12/29 13:56:27;;;;;;;;;;;8.60;99.90;;;;;;5046554;28;19929;-41
2021/12/29 13:58:58;;;;;;;;;;;8.70;99.90;;;;;;5011182;28;20315;-40
2021/12/29 14:01:25;;;;;;;;;;;8.60;99.90;;;;;;5011589;28;19964;-41
2021/12/29 14:03:52;;;;;;;;;;;8.70;99.90;;;;;;5030830;28;19925;-40
2021/12/29 14:06:19;;;;;;;;;;;8.60;99.90;;;;;;5051467;28;19925;-40
2021/12/29 14:08:46;;;;;;;;;;;8.60;99.90;;;;;;5030440;28;19925;-40
2021/12/29 14:11:12;;;;;;;;;;;8.60;99.90;;;;;;5032186;28;19925;-39
2021/12/29 14:13:44;;;;;;;;;;;8.50;99.90;;;;;;5014248;28;20397;-40
2021/12/29 14:16:11;;;;;;;;;;;8.60;99.90;;;;;;5013176;28;19929;-39
2021/12/29 14:18:47;;;;;;;;;;;8.60;99.90;;;;;;5030800;28;19976;-39
2021/12/29 14:21:14;;;;;;;;;;;8.60;99.90;;;;;;5031289;28;20016;-39
2021/12/29 14:23:42;;;;;;;;;;;8.60;99.90;;;;;;5046207;28;19929;-40
2021/12/29 14:26:09;;;;;;;;;;;8.60;99.90;;;;;;5014354;28;19973;-39
2021/12/29 14:28:36;;;;;;;;;;;8.60;99.90;;;;;;5030571;28;20307;-39
2021/12/29 14:31:08;;;;;;;;;;;8.60;99.90;;;;;;5013504;28;19969;-40
2021/12/29 14:33:35;;;;;;;;;;;8.50;99.90;;;;;;5047776;28;20266;-40
2021/12/29 14:36:02;;;;;;;;;;;8.50;99.90;;;;;;5016198;28;19925;-39
2021/12/29 14:38:29;;;;;;;;;;;8.60;99.90;;;;;;5035137;28;19939;-41